createdAt,value
2023-09-12T00:06:38.367Z,17.14
2023-09-12T00:09:45.557Z,17.14
2023-09-12T00:12:53.831Z,17.12
2023-09-12T00:16:01.636Z,17.08
2023-09-12T00:19:09.677Z,17.00
2023-09-12T00:22:19.771Z,17.02
2023-09-12T00:25:27.914Z,16.92
2023-09-12T00:28:35.704Z,16.96
2023-09-12T00:31:43.786Z,17.06
2023-09-12T00:34:51.145Z,17.06
2023-09-12T00:38:01.844Z,16.93
2023-09-12T00:41:09.082Z,16.85
2023-09-12T00:44:17.415Z,16.81
2023-09-12T00:47:34.661Z,16.84
2023-09-12T00:50:46.419Z,16.86
2023-09-12T00:54:00.712Z,16.93
2023-09-12T00:57:09.227Z,17.03
2023-09-12T01:00:22.305Z,17.09
2023-09-12T01:03:32.976Z,17.13
2023-09-12T01:06:48.308Z,17.08
2023-09-12T01:09:59.013Z,17.16
2023-09-12T01:13:07.731Z,17.20
2023-09-12T01:16:15.913Z,17.23
2023-09-12T01:19:23.908Z,17.29
2023-09-12T01:23:21.377Z,17.34
2023-09-12T01:26:51.713Z,17.29
2023-09-12T01:30:10.159Z,17.37
2023-09-12T01:33:17.909Z,17.43
2023-09-12T01:36:26.157Z,17.45
2023-09-12T01:39:37.090Z,17.46
2023-09-12T01:42:51.445Z,17.46
2023-09-12T01:46:05.900Z,17.48
2023-09-12T01:49:16.956Z,17.41
2023-09-12T01:52:26.390Z,17.24
2023-09-12T01:55:39.935Z,16.99
2023-09-12T01:58:47.706Z,16.89
2023-09-12T02:01:58.369Z,16.77
2023-09-12T02:05:19.994Z,16.78
2023-09-12T02:08:28.140Z,16.76
2023-09-12T02:11:35.607Z,16.75
2023-09-12T02:14:43.847Z,16.74
2023-09-12T02:17:54.366Z,16.75
2023-09-12T02:21:03.630Z,16.71
2023-09-12T02:24:11.937Z,16.75
2023-09-12T02:27:20.238Z,16.63
2023-09-12T02:30:27.633Z,16.60
2023-09-12T02:33:38.354Z,16.51
2023-09-12T02:36:46.945Z,16.44
2023-09-12T02:39:55.245Z,16.38
2023-09-12T02:43:02.924Z,16.34
2023-09-12T02:46:13.529Z,16.24
2023-09-12T02:49:42.368Z,16.23
2023-09-12T02:53:00.545Z,16.29
2023-09-12T02:56:08.166Z,16.31
2023-09-12T02:59:16.136Z,16.34
2023-09-12T03:02:30.800Z,16.25
2023-09-12T03:05:41.604Z,16.13
2023-09-12T03:08:50.855Z,16.19
2023-09-12T03:11:58.918Z,16.19
2023-09-12T03:15:08.954Z,16.20
2023-09-12T03:18:18.507Z,16.20
2023-09-12T03:21:30.670Z,16.18
2023-09-12T03:24:41.167Z,16.19
2023-09-12T03:27:48.780Z,16.15
2023-09-12T03:30:56.991Z,16.10
2023-09-12T03:34:04.615Z,16.08
2023-09-12T03:37:15.641Z,16.04
2023-09-12T03:40:22.972Z,15.96
2023-09-12T03:43:31.042Z,15.87
2023-09-12T03:46:38.662Z,15.75
2023-09-12T03:49:46.900Z,15.63
2023-09-12T03:52:57.179Z,15.44
2023-09-12T03:56:05.828Z,15.31
2023-09-12T03:59:13.487Z,15.20
2023-09-12T04:02:22.002Z,15.12
2023-09-12T04:05:30.113Z,15.14
2023-09-12T04:08:41.463Z,15.10
2023-09-12T04:11:50.424Z,15.01
2023-09-12T04:15:00.424Z,14.93
2023-09-12T04:18:09.302Z,14.90
2023-09-12T04:21:30.319Z,14.85
2023-09-12T04:24:40.681Z,14.85
2023-09-12T04:27:48.849Z,14.88
2023-09-12T04:30:56.266Z,14.97
2023-09-12T04:34:28.399Z,14.97
2023-09-12T04:37:38.902Z,15.13
2023-09-12T04:41:13.440Z,15.09
2023-09-12T04:44:43.417Z,15.22
2023-09-12T04:48:01.289Z,15.30
2023-09-12T04:51:28.807Z,15.30
2023-09-12T04:54:38.024Z,15.33
2023-09-12T04:57:48.254Z,15.31
2023-09-12T05:00:58.140Z,15.32
2023-09-12T05:04:05.759Z,15.40
2023-09-12T05:07:13.965Z,15.38
2023-09-12T05:10:21.890Z,15.47
2023-09-12T05:13:32.966Z,15.41
2023-09-12T05:16:41.526Z,15.42
2023-09-12T05:19:49.639Z,15.53
2023-09-12T05:22:57.305Z,15.68
2023-09-12T05:26:06.768Z,15.81
2023-09-12T05:29:16.806Z,15.93
2023-09-12T05:32:29.909Z,16.29
2023-09-12T05:35:45.546Z,16.71
2023-09-12T05:39:00.019Z,17.09
2023-09-12T05:42:27.130Z,17.33
2023-09-12T05:45:38.263Z,17.37
2023-09-12T05:48:46.156Z,17.92
2023-09-12T05:51:54.668Z,18.37
2023-09-12T05:55:02.241Z,19.09
2023-09-12T05:58:11.190Z,19.84
2023-09-12T06:01:21.196Z,20.52
2023-09-12T06:04:29.377Z,21.22
2023-09-12T06:07:38.042Z,21.50
2023-09-12T06:10:47.074Z,21.74
2023-09-12T06:13:54.251Z,21.93
2023-09-12T06:17:05.119Z,21.78
2023-09-12T06:20:14.199Z,21.51
2023-09-12T06:23:22.247Z,21.46
2023-09-12T06:26:29.423Z,22.14
2023-09-12T06:29:38.011Z,21.35
2023-09-12T06:32:52.487Z,21.69
2023-09-12T06:36:00.652Z,21.73
2023-09-12T06:39:08.061Z,21.52
2023-09-12T06:42:16.410Z,21.56
2023-09-12T06:45:23.715Z,22.24
2023-09-12T06:48:34.446Z,22.14
2023-09-12T06:51:42.030Z,22.47
2023-09-12T06:54:50.407Z,23.26
2023-09-12T06:57:58.048Z,22.65
2023-09-12T07:01:08.243Z,22.13
2023-09-12T07:04:21.592Z,23.35
2023-09-12T07:07:30.086Z,23.58
2023-09-12T07:10:37.732Z,24.16
2023-09-12T07:13:47.474Z,24.81
2023-09-12T07:16:55.438Z,25.56
2023-09-12T07:20:11.624Z,25.10
2023-09-12T07:23:19.309Z,24.81
2023-09-12T07:26:28.497Z,25.22
2023-09-12T07:29:36.627Z,25.68
2023-09-12T07:32:45.106Z,25.79
2023-09-12T07:35:57.521Z,26.18
2023-09-12T07:39:12.646Z,25.29
2023-09-12T07:42:20.555Z,24.88
2023-09-12T07:45:29.488Z,25.45
2023-09-12T07:48:37.247Z,25.65
2023-09-12T07:51:48.394Z,26.00
2023-09-12T07:54:58.640Z,25.24
2023-09-12T07:58:07.552Z,25.54
2023-09-12T08:01:15.373Z,26.59
2023-09-12T08:04:24.906Z,27.48
2023-09-12T08:07:35.554Z,28.44
2023-09-12T08:10:44.265Z,28.66
2023-09-12T08:13:55.629Z,28.98
2023-09-12T08:17:06.836Z,28.85
2023-09-12T08:20:16.080Z,28.93
2023-09-12T08:23:27.028Z,28.92
2023-09-12T08:26:34.812Z,28.78
2023-09-12T08:29:43.531Z,29.53
2023-09-12T08:32:51.616Z,28.67
2023-09-12T08:36:00.190Z,28.71
2023-09-12T08:39:10.963Z,29.55
2023-09-12T08:42:20.753Z,28.98
2023-09-12T08:45:29.087Z,28.38
2023-09-12T08:48:39.578Z,28.24
2023-09-12T08:51:47.476Z,29.30
2023-09-12T08:54:59.117Z,28.72
2023-09-12T08:58:09.436Z,28.69
2023-09-12T09:01:22.303Z,29.24
2023-09-12T09:04:45.772Z,29.11
2023-09-12T09:07:56.451Z,29.89
2023-09-12T09:11:07.902Z,28.94
2023-09-12T09:14:16.394Z,29.26
2023-09-12T09:17:34.458Z,29.53
2023-09-12T09:20:47.049Z,30.53
2023-09-12T09:23:55.615Z,30.62
2023-09-12T09:27:07.621Z,29.66
2023-09-12T09:30:17.100Z,28.92
2023-09-12T09:33:26.523Z,29.14
2023-09-12T09:36:35.637Z,29.59
2023-09-12T09:39:45.549Z,29.63
2023-09-12T09:42:58.532Z,30.22
2023-09-12T09:46:08.088Z,30.24
2023-09-12T09:49:19.201Z,30.71
2023-09-12T09:52:33.589Z,30.44
2023-09-12T09:55:42.194Z,30.57
2023-09-12T09:58:58.876Z,30.36
2023-09-12T10:02:18.008Z,30.84
2023-09-12T10:05:27.387Z,29.86
2023-09-12T10:08:40.036Z,30.03
2023-09-12T10:11:54.737Z,30.70
2023-09-12T10:15:18.299Z,30.98
2023-09-12T10:18:34.206Z,31.32
2023-09-12T10:21:54.128Z,31.56
2023-09-12T10:25:04.916Z,30.87
2023-09-12T10:28:13.133Z,31.29
2023-09-12T10:31:25.180Z,31.79
2023-09-12T10:34:37.024Z,31.01
2023-09-12T10:37:50.427Z,30.08
2023-09-12T10:41:08.678Z,30.56
2023-09-12T10:44:28.058Z,31.14
2023-09-12T10:47:40.214Z,31.56
2023-09-12T10:51:03.130Z,30.77
2023-09-12T10:54:12.095Z,30.76
2023-09-12T10:57:21.809Z,30.53
2023-09-12T11:00:34.240Z,30.56
2023-09-12T11:03:45.653Z,29.99
2023-09-12T11:06:54.763Z,29.68
2023-09-12T11:10:25.759Z,29.80
2023-09-12T11:13:44.491Z,30.35
2023-09-12T11:17:28.291Z,30.25
2023-09-12T11:21:05.060Z,30.40
2023-09-12T11:24:13.906Z,30.22
2023-09-12T11:27:21.785Z,30.37
2023-09-12T11:30:37.037Z,30.55
2023-09-12T11:33:46.334Z,30.75
2023-09-12T11:37:02.547Z,30.64
2023-09-12T11:40:27.887Z,30.49
2023-09-12T11:43:42.420Z,29.21
2023-09-12T11:46:54.053Z,29.11
2023-09-12T11:50:03.856Z,29.49
2023-09-12T11:53:16.600Z,29.77
2023-09-12T11:56:25.163Z,29.97
2023-09-12T11:59:34.257Z,29.67
2023-09-12T12:02:43.378Z,30.08
2023-09-12T12:05:52.684Z,30.51
2023-09-12T12:09:09.202Z,30.62
2023-09-12T12:12:19.074Z,30.58
2023-09-12T12:15:27.859Z,30.93
2023-09-12T12:18:41.744Z,30.78
2023-09-12T12:21:57.619Z,30.54
2023-09-12T12:25:14.800Z,30.58
2023-09-12T12:28:25.812Z,30.15
2023-09-12T12:31:34.208Z,30.39
2023-09-12T12:35:42.880Z,30.68
2023-09-12T12:38:31.764Z,30.33
2023-09-12T12:41:51.669Z,29.74
2023-09-12T12:44:59.918Z,29.72
2023-09-12T12:48:10.395Z,30.33
2023-09-12T12:51:21.109Z,29.87
2023-09-12T12:54:29.189Z,29.42
2023-09-12T12:57:41.857Z,29.73
2023-09-12T13:00:52.248Z,29.55
2023-09-12T13:04:25.744Z,29.24
2023-09-12T13:07:44.007Z,29.07
2023-09-12T13:10:56.682Z,28.81
2023-09-12T13:14:12.654Z,28.54
2023-09-12T13:17:22.560Z,28.19
2023-09-12T13:20:30.917Z,28.41
2023-09-12T13:23:48.690Z,28.32
2023-09-12T13:27:11.909Z,28.40
2023-09-12T13:30:23.467Z,28.49
2023-09-12T13:33:44.268Z,28.52
2023-09-12T13:37:05.706Z,28.47
2023-09-12T13:40:36.047Z,28.37
2023-09-12T13:43:43.651Z,28.62
2023-09-12T13:46:55.074Z,28.20
2023-09-12T13:50:02.427Z,27.92
2023-09-12T13:53:11.623Z,27.80
2023-09-12T13:56:37.255Z,27.71
2023-09-12T13:59:47.105Z,27.66
2023-09-12T14:02:58.670Z,27.58
2023-09-12T14:06:09.202Z,27.38
2023-09-12T14:09:29.675Z,27.58
2023-09-12T14:12:38.164Z,27.71
2023-09-12T14:15:48.109Z,27.46
2023-09-12T14:18:59.938Z,27.53
2023-09-12T14:22:14.889Z,27.86
2023-09-12T14:25:30.449Z,27.75
2023-09-12T14:28:38.320Z,27.97
2023-09-12T14:31:59.198Z,27.85
2023-09-12T14:35:17.937Z,27.56
2023-09-12T14:38:31.002Z,27.65
2023-09-12T14:41:38.164Z,27.66
2023-09-12T14:44:46.190Z,27.65
2023-09-12T14:47:53.437Z,27.58
2023-09-12T14:51:05.265Z,27.46
2023-09-12T14:54:13.634Z,27.49
2023-09-12T14:57:21.704Z,27.59
2023-09-12T15:00:29.879Z,27.45
2023-09-12T15:03:39.311Z,27.34
2023-09-12T15:06:49.603Z,27.40
2023-09-12T15:09:58.035Z,27.45
2023-09-12T15:13:05.297Z,27.48
2023-09-12T15:16:13.794Z,27.42
2023-09-12T15:19:21.228Z,27.39
2023-09-12T15:22:32.099Z,27.23
2023-09-12T15:25:39.947Z,27.01
2023-09-12T15:28:47.928Z,26.99
2023-09-12T15:31:55.295Z,26.94
2023-09-12T15:35:04.449Z,26.77
2023-09-12T15:38:21.255Z,26.86
2023-09-12T15:41:29.357Z,26.92
2023-09-12T15:44:37.022Z,26.80
2023-09-12T15:47:45.186Z,26.72
2023-09-12T15:50:52.880Z,26.63
2023-09-12T15:54:04.013Z,26.61
2023-09-12T15:57:11.685Z,26.62
2023-09-12T16:00:20.098Z,26.55
2023-09-12T16:03:27.980Z,26.54
2023-09-12T16:06:36.382Z,26.53
2023-09-12T16:09:46.169Z,26.49
2023-09-12T16:12:54.383Z,26.35
2023-09-12T16:16:01.789Z,26.38
2023-09-12T16:19:10.797Z,26.29
2023-09-12T16:22:18.159Z,26.17
2023-09-12T16:25:28.904Z,26.19
2023-09-12T16:28:36.324Z,26.07
2023-09-12T16:31:44.590Z,25.93
2023-09-12T16:34:52.044Z,25.67
2023-09-12T16:38:00.202Z,25.63
2023-09-12T16:41:10.055Z,25.49
2023-09-12T16:44:21.137Z,25.26
2023-09-12T16:47:28.837Z,25.12
2023-09-12T16:50:36.938Z,24.93
2023-09-12T16:53:45.679Z,24.77
2023-09-12T16:56:56.901Z,24.65
2023-09-12T17:00:04.095Z,24.49
2023-09-12T17:03:12.187Z,24.38
2023-09-12T17:06:19.388Z,24.25
2023-09-12T17:09:27.724Z,24.21
2023-09-12T17:12:38.121Z,24.07
2023-09-12T17:15:46.281Z,23.96
2023-09-12T17:18:53.548Z,23.78
2023-09-12T17:22:01.750Z,23.68
2023-09-12T17:25:10.436Z,23.51
2023-09-12T17:28:21.408Z,23.34
2023-09-12T17:31:28.895Z,23.23
2023-09-12T17:34:44.095Z,23.10
2023-09-12T17:37:51.734Z,22.97
2023-09-12T17:40:59.988Z,22.83
2023-09-12T17:44:09.890Z,22.72
2023-09-12T17:47:18.137Z,22.58
2023-09-12T17:50:26.991Z,22.45
2023-09-12T17:53:35.028Z,22.25
2023-09-12T17:56:42.210Z,22.18
2023-09-12T17:59:56.884Z,22.11
2023-09-12T18:03:04.391Z,22.09
2023-09-12T18:06:12.480Z,22.04
2023-09-12T18:09:20.219Z,21.98
2023-09-12T18:12:29.472Z,21.82
2023-09-12T18:15:39.709Z,21.85
2023-09-12T18:18:48.806Z,21.91
2023-09-12T18:21:56.160Z,21.92
2023-09-12T18:25:04.682Z,21.80
2023-09-12T18:28:11.912Z,21.78
2023-09-12T18:31:22.640Z,21.87
2023-09-12T18:34:30.581Z,21.96
2023-09-12T18:37:38.598Z,22.04
2023-09-12T18:40:45.878Z,21.95
2023-09-12T18:43:55.003Z,21.78
2023-09-12T18:47:05.284Z,21.80
2023-09-12T18:50:14.398Z,21.77
2023-09-12T18:53:23.313Z,21.76
2023-09-12T18:56:31.657Z,21.71
2023-09-12T18:59:39.396Z,21.66
2023-09-12T19:02:51.793Z,21.45
2023-09-12T19:06:01.407Z,21.31
2023-09-12T19:09:12.374Z,21.05
2023-09-12T19:12:19.513Z,20.98
2023-09-12T19:15:28.164Z,20.95
2023-09-12T19:18:38.524Z,21.00
2023-09-12T19:21:47.107Z,20.96
2023-09-12T19:24:54.359Z,20.96
2023-09-12T19:28:04.483Z,20.98
2023-09-12T19:31:12.069Z,21.00
2023-09-12T19:34:22.713Z,20.88
2023-09-12T19:37:30.426Z,20.84
2023-09-12T19:40:40.068Z,20.75
2023-09-12T19:43:47.645Z,20.63
2023-09-12T19:46:55.843Z,20.65
2023-09-12T19:50:06.050Z,20.61
2023-09-12T19:53:17.478Z,20.45
2023-09-12T19:56:24.993Z,20.40
2023-09-12T19:59:34.144Z,20.25
2023-09-12T20:02:41.695Z,20.24
2023-09-12T20:05:53.250Z,20.00
2023-09-12T20:09:04.281Z,19.87
2023-09-12T20:12:12.830Z,19.70
2023-09-12T20:15:21.817Z,19.74
2023-09-12T20:18:30.294Z,19.69
2023-09-12T20:21:41.555Z,19.68
2023-09-12T20:24:49.580Z,19.75
2023-09-12T20:27:57.032Z,19.74
2023-09-12T20:31:05.272Z,19.61
2023-09-12T20:34:12.861Z,19.54
2023-09-12T20:37:31.877Z,19.55
2023-09-12T20:40:41.847Z,19.58
2023-09-12T20:43:50.436Z,19.53
2023-09-12T20:46:59.251Z,19.41
2023-09-12T20:50:10.630Z,19.47
2023-09-12T20:53:21.080Z,19.47
2023-09-12T20:56:29.426Z,19.36
2023-09-12T20:59:36.710Z,19.16
2023-09-12T21:02:46.999Z,19.00
2023-09-12T21:05:54.360Z,18.90
2023-09-12T21:09:05.714Z,18.83
2023-09-12T21:12:13.690Z,18.81
2023-09-12T21:15:24.492Z,18.75
2023-09-12T21:18:31.834Z,18.76
2023-09-12T21:21:40.205Z,18.82
2023-09-12T21:24:56.191Z,18.78
2023-09-12T21:28:04.422Z,18.77
2023-09-12T21:31:11.792Z,18.71
2023-09-12T21:34:23.974Z,18.69
2023-09-12T21:37:34.611Z,18.64
2023-09-12T21:40:45.210Z,18.59
2023-09-12T21:43:52.350Z,18.50
2023-09-12T21:47:03.383Z,18.42
2023-09-12T21:50:14.492Z,18.42
2023-09-12T21:53:35.859Z,18.39
2023-09-12T21:56:45.602Z,18.42
2023-09-12T21:59:53.611Z,18.51
2023-09-12T22:03:01.361Z,18.52
2023-09-12T22:06:10.403Z,18.50
2023-09-12T22:09:17.633Z,18.47
2023-09-12T22:12:28.624Z,18.46
2023-09-12T22:15:42.248Z,18.43
2023-09-12T22:18:50.535Z,18.42
2023-09-12T22:21:57.834Z,18.38
2023-09-12T22:25:07.398Z,18.28
2023-09-12T22:28:17.435Z,18.04
2023-09-12T22:31:25.511Z,18.07
2023-09-12T22:34:32.980Z,18.05
2023-09-12T22:37:47.369Z,17.95
2023-09-12T22:40:55.519Z,17.85
2023-09-12T22:44:06.669Z,17.86
2023-09-12T22:47:14.159Z,17.86
2023-09-12T22:50:25.931Z,17.87
2023-09-12T22:53:52.044Z,17.76
2023-09-12T22:57:08.410Z,17.52
2023-09-12T23:00:37.844Z,17.47
2023-09-12T23:03:46.418Z,17.26
2023-09-12T23:07:15.863Z,17.36
2023-09-12T23:10:23.974Z,17.45
2023-09-12T23:13:31.304Z,17.21
2023-09-12T23:16:42.045Z,17.17
2023-09-12T23:19:49.933Z,17.12
2023-09-12T23:22:58.245Z,17.07
2023-09-12T23:26:06.195Z,17.07
2023-09-12T23:29:14.507Z,17.02
2023-09-12T23:32:24.638Z,16.94
2023-09-12T23:35:32.829Z,16.92
2023-09-12T23:38:42.873Z,17.01
2023-09-12T23:41:51.067Z,17.12
2023-09-12T23:45:17.014Z,17.25
2023-09-12T23:48:29.772Z,17.27
2023-09-12T23:51:39.225Z,17.37
2023-09-12T23:54:52.320Z,17.27
2023-09-12T23:57:59.649Z,17.24
